Aérodrome :
LOGIN :

S'inscrire | Disclaimer

   EN    FR    IT 

 










Légende :    VFR   VFR Marginal   IFR   IFR Intensif   IFR Très Intensif
Visi : 
Plafond : 
>= 8 km
>= 3000ft
5 à 8 km
1000 à 3000 ft
1500m à 5 km
500 à 1000 ft
800 à 1500m
200 à 500 ft
< 800m
< 200 ft
Symboles :   Orages  Brouillard  Fortes neiges  Fortes précipitations  Vent > 20 kt
SIGMETs :   Divers  Orages  Givrage  Turbulence  Onde Orograph.  Cendres Volcan.







- Altitude de l'aérodrome : 294 ft
- Code IATA : NAP


LIRN - Naples Capodichino

DERNIER METAR :
  • 141720Z 04004KT 320V100 9999 SCT030 BKN070 23/19 Q1012 NOSIG

METARs EXPIRÉS :
  • 141650Z 07008KT 9999 SCT030 BKN070 23/19 Q1012 NOSIG
  • 141620Z 01008KT 350V050 9999 -RA SCT030 BKN070 23/19 Q1013 NOSIG
  • 141550Z 32010KT 290V350 9999 -RA SCT030 BKN070 24/21 Q1013 NOSIG
  • 141520Z 26006KT 200V340 9999 -RA SCT030 SCT070 25/22 Q1013 NOSIG
  • 141450Z 26009KT 230V300 9999 SCT030 SCT070 25/20 Q1012 RETSRA NOSIG

TAF AMD TAF LIRN
Valide du 14 à 14h jusqu'au 15 à 12h UTC


141416Z 1414/1512 22010KT 9999 SCT030
BECMG 1417/1419 VRB05KT
TEMPO 1414/1421 TSRA
TEMPO 1505/1512 TSRA
Pas de NOTAMs connus pour ce terrain.
1 SIGMET publié pour la FIR Roma (LIRR) :
 
Orages noyés dans la masse
LIRR SIGMET 11 VALID 141700/141900 LIIB
LIRR ROMA FIR EMBD TS FCST N OF LINE N3824 E00842 - N3958 E01602 TOP ABV FL330 MOV SE NC=



MET'MAP, la Météo Aéronautique d'un coup d'oeil ! - Copyright ORBIFLY Décembre 2007 - Disclaimer

ORBIFLY MET'MAP TEAM :

Programmation & Développement : Alexandra Zaïnal
Conception & Développement : Baudouin d'Aumeries
Co-Programmation & Développement : Marc-Olivier Méhu
Soutien technique & logistique : Manuel Goepfert

Contact : metmap@orbifly.com




SOURCES & CREDITS :

   NOAA